sensor_id;sensor_type;location;lat;lon;timestamp;P1;durP1;ratioP1;P2;durP2;ratioP2
19173;SDS011;9719;49.322;8.536;2022-10-16T00:01:18;2.17;;;1.98;;
19173;SDS011;9719;49.322;8.536;2022-10-16T00:06:23;2.47;;;1.45;;
19173;SDS011;9719;49.322;8.536;2022-10-16T00:11:27;2.13;;;1.42;;
19173;SDS011;9719;49.322;8.536;2022-10-16T00:16:30;1.23;;;1.13;;
19173;SDS011;9719;49.322;8.536;2022-10-16T00:21:34;4.15;;;1.45;;
19173;SDS011;9719;49.322;8.536;2022-10-16T00:26:36;1.67;;;1.50;;
19173;SDS011;9719;49.322;8.536;2022-10-16T00:31:39;2.55;;;1.30;;
19173;SDS011;9719;49.322;8.536;2022-10-16T00:36:43;2.08;;;1.50;;
19173;SDS011;9719;49.322;8.536;2022-10-16T00:41:45;2.70;;;1.15;;
19173;SDS011;9719;49.322;8.536;2022-10-16T00:46:47;1.30;;;1.20;;
19173;SDS011;9719;49.322;8.536;2022-10-16T00:51:51;2.92;;;1.30;;
19173;SDS011;9719;49.322;8.536;2022-10-16T00:56:55;3.08;;;1.60;;
19173;SDS011;9719;49.322;8.536;2022-10-16T01:01:59;5.47;;;2.15;;
19173;SDS011;9719;49.322;8.536;2022-10-16T01:07:04;5.28;;;2.30;;
19173;SDS011;9719;49.322;8.536;2022-10-16T01:12:12;3.10;;;1.48;;
19173;SDS011;9719;49.322;8.536;2022-10-16T01:17:18;1.27;;;1.17;;
19173;SDS011;9719;49.322;8.536;2022-10-16T01:22:25;4.43;;;1.40;;
19173;SDS011;9719;49.322;8.536;2022-10-16T01:27:35;1.33;;;1.10;;
19173;SDS011;9719;49.322;8.536;2022-10-16T01:32:41;1.73;;;1.63;;
19173;SDS011;9719;49.322;8.536;2022-10-16T01:37:47;2.72;;;1.40;;
19173;SDS011;9719;49.322;8.536;2022-10-16T01:42:55;1.88;;;1.15;;
19173;SDS011;9719;49.322;8.536;2022-10-16T01:48:04;4.00;;;2.28;;
19173;SDS011;9719;49.322;8.536;2022-10-16T01:53:10;2.35;;;1.58;;
19173;SDS011;9719;49.322;8.536;2022-10-16T01:58:16;1.90;;;1.10;;
19173;SDS011;9719;49.322;8.536;2022-10-16T02:03:18;4.15;;;1.85;;
19173;SDS011;9719;49.322;8.536;2022-10-16T02:08:22;2.38;;;1.20;;
19173;SDS011;9719;49.322;8.536;2022-10-16T02:13:28;6.75;;;1.63;;
19173;SDS011;9719;49.322;8.536;2022-10-16T02:18:34;2.05;;;1.55;;
19173;SDS011;9719;49.322;8.536;2022-10-16T02:23:37;2.53;;;1.50;;
19173;SDS011;9719;49.322;8.536;2022-10-16T02:28:48;1.85;;;1.65;;
19173;SDS011;9719;49.322;8.536;2022-10-16T02:33:56;1.40;;;1.30;;
19173;SDS011;9719;49.322;8.536;2022-10-16T02:39:00;2.70;;;2.17;;
19173;SDS011;9719;49.322;8.536;2022-10-16T02:44:05;2.47;;;1.45;;
19173;SDS011;9719;49.322;8.536;2022-10-16T02:49:07;2.75;;;1.75;;
19173;SDS011;9719;49.322;8.536;2022-10-16T02:54:09;2.47;;;1.90;;
19173;SDS011;9719;49.322;8.536;2022-10-16T02:59:12;10.95;;;2.20;;
19173;SDS011;9719;49.322;8.536;2022-10-16T03:04:14;3.50;;;2.03;;
19173;SDS011;9719;49.322;8.536;2022-10-16T03:09:16;5.53;;;1.45;;
19173;SDS011;9719;49.322;8.536;2022-10-16T03:14:20;2.03;;;1.60;;
19173;SDS011;9719;49.322;8.536;2022-10-16T03:19:21;1.98;;;1.60;;
19173;SDS011;9719;49.322;8.536;2022-10-16T03:24:24;5.30;;;2.05;;
19173;SDS011;9719;49.322;8.536;2022-10-16T03:29:27;3.10;;;1.55;;
19173;SDS011;9719;49.322;8.536;2022-10-16T03:34:29;1.80;;;1.63;;
19173;SDS011;9719;49.322;8.536;2022-10-16T03:39:31;2.38;;;1.90;;
19173;SDS011;9719;49.322;8.536;2022-10-16T03:44:35;3.00;;;1.40;;
19173;SDS011;9719;49.322;8.536;2022-10-16T03:49:37;3.58;;;1.63;;
19173;SDS011;9719;49.322;8.536;2022-10-16T03:54:39;2.63;;;1.65;;
19173;SDS011;9719;49.322;8.536;2022-10-16T03:59:42;1.55;;;1.45;;
19173;SDS011;9719;49.322;8.536;2022-10-16T04:04:44;3.83;;;1.85;;
19173;SDS011;9719;49.322;8.536;2022-10-16T04:09:46;4.63;;;2.88;;
19173;SDS011;9719;49.322;8.536;2022-10-16T04:14:50;2.78;;;1.98;;
19173;SDS011;9719;49.322;8.536;2022-10-16T04:19:52;1.58;;;1.40;;
19173;SDS011;9719;49.322;8.536;2022-10-16T04:24:54;2.78;;;1.40;;
19173;SDS011;9719;49.322;8.536;2022-10-16T04:29:57;2.88;;;1.60;;
19173;SDS011;9719;49.322;8.536;2022-10-16T04:35:00;2.28;;;1.95;;
19173;SDS011;9719;49.322;8.536;2022-10-16T04:40:03;1.88;;;1.67;;
19173;SDS011;9719;49.322;8.536;2022-10-16T04:45:08;1.42;;;0.90;;
19173;SDS011;9719;49.322;8.536;2022-10-16T04:50:10;2.03;;;1.10;;
19173;SDS011;9719;49.322;8.536;2022-10-16T04:55:12;2.15;;;1.52;;
19173;SDS011;9719;49.322;8.536;2022-10-16T05:00:16;1.40;;;1.00;;
19173;SDS011;9719;49.322;8.536;2022-10-16T05:05:18;2.28;;;1.98;;
19173;SDS011;9719;49.322;8.536;2022-10-16T05:10:20;2.30;;;1.33;;
19173;SDS011;9719;49.322;8.536;2022-10-16T05:15:23;4.30;;;2.10;;
19173;SDS011;9719;49.322;8.536;2022-10-16T05:20:26;1.60;;;1.38;;
19173;SDS011;9719;49.322;8.536;2022-10-16T05:25:28;2.30;;;1.30;;
19173;SDS011;9719;49.322;8.536;2022-10-16T05:30:31;2.15;;;1.83;;
19173;SDS011;9719;49.322;8.536;2022-10-16T05:35:33;2.10;;;1.52;;
19173;SDS011;9719;49.322;8.536;2022-10-16T05:40:35;6.30;;;2.13;;
19173;SDS011;9719;49.322;8.536;2022-10-16T05:45:39;2.58;;;1.80;;
19173;SDS011;9719;49.322;8.536;2022-10-16T05:50:41;1.83;;;1.73;;
19173;SDS011;9719;49.322;8.536;2022-10-16T05:55:43;1.77;;;1.65;;
19173;SDS011;9719;49.322;8.536;2022-10-16T06:00:54;2.53;;;1.70;;
19173;SDS011;9719;49.322;8.536;2022-10-16T06:05:57;2.63;;;1.52;;
19173;SDS011;9719;49.322;8.536;2022-10-16T06:11:02;3.58;;;1.70;;
19173;SDS011;9719;49.322;8.536;2022-10-16T06:16:07;3.00;;;1.73;;
19173;SDS011;9719;49.322;8.536;2022-10-16T06:21:10;2.67;;;1.80;;
19173;SDS011;9719;49.322;8.536;2022-10-16T06:26:15;3.95;;;1.88;;
19173;SDS011;9719;49.322;8.536;2022-10-16T06:31:20;4.65;;;2.20;;
19173;SDS011;9719;49.322;8.536;2022-10-16T06:36:22;3.05;;;1.90;;
19173;SDS011;9719;49.322;8.536;2022-10-16T06:41:24;2.78;;;2.22;;
19173;SDS011;9719;49.322;8.536;2022-10-16T06:46:28;2.85;;;2.05;;
19173;SDS011;9719;49.322;8.536;2022-10-16T06:51:30;2.20;;;1.95;;
19173;SDS011;9719;49.322;8.536;2022-10-16T06:56:34;2.13;;;1.92;;
19173;SDS011;9719;49.322;8.536;2022-10-16T07:01:38;2.55;;;2.00;;
19173;SDS011;9719;49.322;8.536;2022-10-16T07:06:40;2.15;;;1.95;;
19173;SDS011;9719;49.322;8.536;2022-10-16T07:11:42;2.10;;;1.73;;
19173;SDS011;9719;49.322;8.536;2022-10-16T07:16:45;3.35;;;2.22;;
19173;SDS011;9719;49.322;8.536;2022-10-16T07:21:47;5.07;;;2.60;;
19173;SDS011;9719;49.322;8.536;2022-10-16T07:26:49;5.47;;;2.70;;
19173;SDS011;9719;49.322;8.536;2022-10-16T07:31:53;5.70;;;2.55;;
19173;SDS011;9719;49.322;8.536;2022-10-16T07:36:55;4.95;;;3.33;;
19173;SDS011;9719;49.322;8.536;2022-10-16T07:41:57;3.92;;;2.38;;
19173;SDS011;9719;49.322;8.536;2022-10-16T07:47:00;2.97;;;2.58;;
19173;SDS011;9719;49.322;8.536;2022-10-16T07:52:03;4.47;;;2.80;;
19173;SDS011;9719;49.322;8.536;2022-10-16T07:57:05;3.40;;;3.10;;
19173;SDS011;9719;49.322;8.536;2022-10-16T08:02:08;7.22;;;3.25;;
19173;SDS011;9719;49.322;8.536;2022-10-16T08:07:10;3.28;;;2.72;;
19173;SDS011;9719;49.322;8.536;2022-10-16T08:12:12;3.65;;;2.80;;
19173;SDS011;9719;49.322;8.536;2022-10-16T08:17:16;4.85;;;2.97;;
19173;SDS011;9719;49.322;8.536;2022-10-16T08:22:18;2.40;;;2.08;;
19173;SDS011;9719;49.322;8.536;2022-10-16T08:27:20;2.80;;;1.95;;
19173;SDS011;9719;49.322;8.536;2022-10-16T08:32:23;2.60;;;2.40;;
19173;SDS011;9719;49.322;8.536;2022-10-16T08:37:29;5.32;;;2.35;;
19173;SDS011;9719;49.322;8.536;2022-10-16T08:42:41;3.95;;;2.15;;
19173;SDS011;9719;49.322;8.536;2022-10-16T08:48:03;3.33;;;2.30;;
19173;SDS011;9719;49.322;8.536;2022-10-16T08:53:14;3.40;;;3.10;;
19173;SDS011;9719;49.322;8.536;2022-10-16T08:58:19;5.75;;;2.92;;
19173;SDS011;9719;49.322;8.536;2022-10-16T09:03:33;4.10;;;2.30;;
19173;SDS011;9719;49.322;8.536;2022-10-16T09:08:53;3.17;;;2.42;;
19173;SDS011;9719;49.322;8.536;2022-10-16T09:14:32;3.15;;;1.83;;
19173;SDS011;9719;49.322;8.536;2022-10-16T09:19:44;6.57;;;2.58;;
19173;SDS011;9719;49.322;8.536;2022-10-16T09:24:53;2.13;;;1.60;;
19173;SDS011;9719;49.322;8.536;2022-10-16T09:29:56;2.33;;;1.77;;
19173;SDS011;9719;49.322;8.536;2022-10-16T09:34:59;3.83;;;2.33;;
19173;SDS011;9719;49.322;8.536;2022-10-16T09:40:02;2.17;;;1.95;;
19173;SDS011;9719;49.322;8.536;2022-10-16T09:45:05;3.35;;;2.42;;
19173;SDS011;9719;49.322;8.536;2022-10-16T09:50:23;2.60;;;2.40;;
19173;SDS011;9719;49.322;8.536;2022-10-16T09:55:27;2.22;;;2.03;;
19173;SDS011;9719;49.322;8.536;2022-10-16T10:00:29;3.53;;;3.22;;
19173;SDS011;9719;49.322;8.536;2022-10-16T10:05:33;3.15;;;1.95;;
19173;SDS011;9719;49.322;8.536;2022-10-16T10:10:37;2.13;;;1.98;;
19173;SDS011;9719;49.322;8.536;2022-10-16T10:15:42;4.03;;;1.92;;
19173;SDS011;9719;49.322;8.536;2022-10-16T10:20:46;1.80;;;1.20;;
19173;SDS011;9719;49.322;8.536;2022-10-16T10:26:01;2.83;;;1.98;;
19173;SDS011;9719;49.322;8.536;2022-10-16T10:31:09;2.95;;;1.38;;
19173;SDS011;9719;49.322;8.536;2022-10-16T10:36:30;1.98;;;1.42;;
19173;SDS011;9719;49.322;8.536;2022-10-16T10:41:40;2.80;;;1.63;;
19173;SDS011;9719;49.322;8.536;2022-10-16T10:47:13;1.23;;;1.13;;
19173;SDS011;9719;49.322;8.536;2022-10-16T10:52:32;2.05;;;1.10;;
19173;SDS011;9719;49.322;8.536;2022-10-16T10:57:44;2.25;;;1.10;;
19173;SDS011;9719;49.322;8.536;2022-10-16T11:02:59;1.38;;;1.27;;
19173;SDS011;9719;49.322;8.536;2022-10-16T11:08:17;1.88;;;1.10;;
19173;SDS011;9719;49.322;8.536;2022-10-16T11:13:24;1.52;;;1.00;;
19173;SDS011;9719;49.322;8.536;2022-10-16T11:18:33;2.10;;;1.35;;
19173;SDS011;9719;49.322;8.536;2022-10-16T11:23:48;3.47;;;1.00;;
19173;SDS011;9719;49.322;8.536;2022-10-16T11:28:55;2.35;;;1.08;;
19173;SDS011;9719;49.322;8.536;2022-10-16T11:34:01;1.45;;;1.35;;
19173;SDS011;9719;49.322;8.536;2022-10-16T11:39:11;1.30;;;1.20;;
19173;SDS011;9719;49.322;8.536;2022-10-16T11:49:45;2.05;;;1.17;;
19173;SDS011;9719;49.322;8.536;2022-10-16T11:54:56;2.47;;;1.23;;
19173;SDS011;9719;49.322;8.536;2022-10-16T12:00:05;2.00;;;1.38;;
19173;SDS011;9719;49.322;8.536;2022-10-16T12:05:18;1.73;;;0.98;;
19173;SDS011;9719;49.322;8.536;2022-10-16T12:10:28;2.22;;;1.13;;
19173;SDS011;9719;49.322;8.536;2022-10-16T12:15:36;3.00;;;1.10;;
19173;SDS011;9719;49.322;8.536;2022-10-16T12:20:38;2.05;;;1.20;;
19173;SDS011;9719;49.322;8.536;2022-10-16T12:25:53;2.92;;;1.20;;
19173;SDS011;9719;49.322;8.536;2022-10-16T12:30:56;2.85;;;1.10;;
19173;SDS011;9719;49.322;8.536;2022-10-16T12:36:00;1.35;;;1.25;;
19173;SDS011;9719;49.322;8.536;2022-10-16T12:41:08;2.20;;;1.30;;
19173;SDS011;9719;49.322;8.536;2022-10-16T12:46:21;1.42;;;1.10;;
19173;SDS011;9719;49.322;8.536;2022-10-16T12:51:33;1.33;;;1.27;;
19173;SDS011;9719;49.322;8.536;2022-10-16T12:56:40;1.92;;;0.90;;
19173;SDS011;9719;49.322;8.536;2022-10-16T13:01:56;5.00;;;2.00;;
19173;SDS011;9719;49.322;8.536;2022-10-16T13:07:50;1.17;;;1.02;;
19173;SDS011;9719;49.322;8.536;2022-10-16T13:13:06;1.90;;;1.10;;
19173;SDS011;9719;49.322;8.536;2022-10-16T13:18:33;2.55;;;1.70;;
19173;SDS011;9719;49.322;8.536;2022-10-16T13:23:46;1.00;;;0.90;;
19173;SDS011;9719;49.322;8.536;2022-10-16T13:28:55;2.45;;;1.00;;
19173;SDS011;9719;49.322;8.536;2022-10-16T13:34:01;1.77;;;1.23;;
19173;SDS011;9719;49.322;8.536;2022-10-16T13:39:09;2.83;;;1.45;;
19173;SDS011;9719;49.322;8.536;2022-10-16T13:44:17;2.75;;;1.30;;
19173;SDS011;9719;49.322;8.536;2022-10-16T13:49:21;1.50;;;1.40;;
19173;SDS011;9719;49.322;8.536;2022-10-16T13:54:23;2.97;;;1.40;;
19173;SDS011;9719;49.322;8.536;2022-10-16T13:59:33;2.47;;;1.30;;
19173;SDS011;9719;49.322;8.536;2022-10-16T14:04:37;1.50;;;1.20;;
19173;SDS011;9719;49.322;8.536;2022-10-16T14:09:40;1.63;;;1.52;;
19173;SDS011;9719;49.322;8.536;2022-10-16T14:14:44;2.53;;;1.42;;
19173;SDS011;9719;49.322;8.536;2022-10-16T14:19:49;2.05;;;1.38;;
19173;SDS011;9719;49.322;8.536;2022-10-16T14:24:53;3.97;;;2.75;;
19173;SDS011;9719;49.322;8.536;2022-10-16T14:30:14;3.20;;;2.15;;
19173;SDS011;9719;49.322;8.536;2022-10-16T14:35:22;4.85;;;1.98;;
19173;SDS011;9719;49.322;8.536;2022-10-16T14:40:26;1.88;;;1.70;;
19173;SDS011;9719;49.322;8.536;2022-10-16T14:45:32;3.38;;;1.90;;
19173;SDS011;9719;49.322;8.536;2022-10-16T14:50:36;2.33;;;2.13;;
19173;SDS011;9719;49.322;8.536;2022-10-16T14:55:38;2.13;;;1.80;;
19173;SDS011;9719;49.322;8.536;2022-10-16T15:00:43;2.03;;;1.83;;
19173;SDS011;9719;49.322;8.536;2022-10-16T15:05:47;2.10;;;2.00;;
19173;SDS011;9719;49.322;8.536;2022-10-16T15:10:49;1.52;;;1.42;;
19173;SDS011;9719;49.322;8.536;2022-10-16T15:15:54;3.20;;;1.88;;
19173;SDS011;9719;49.322;8.536;2022-10-16T15:20:56;2.85;;;1.35;;
19173;SDS011;9719;49.322;8.536;2022-10-16T15:25:58;1.90;;;1.63;;
19173;SDS011;9719;49.322;8.536;2022-10-16T15:31:02;3.63;;;1.77;;
19173;SDS011;9719;49.322;8.536;2022-10-16T15:36:06;2.65;;;1.65;;
19173;SDS011;9719;49.322;8.536;2022-10-16T15:41:08;3.08;;;2.20;;
19173;SDS011;9719;49.322;8.536;2022-10-16T15:46:12;2.70;;;1.77;;
19173;SDS011;9719;49.322;8.536;2022-10-16T15:51:15;3.22;;;2.03;;
19173;SDS011;9719;49.322;8.536;2022-10-16T15:56:18;1.83;;;1.63;;
19173;SDS011;9719;49.322;8.536;2022-10-16T16:01:21;2.38;;;1.90;;
19173;SDS011;9719;49.322;8.536;2022-10-16T16:06:23;2.72;;;1.50;;
19173;SDS011;9719;49.322;8.536;2022-10-16T16:11:25;1.75;;;1.48;;
19173;SDS011;9719;49.322;8.536;2022-10-16T16:16:29;3.55;;;1.88;;
19173;SDS011;9719;49.322;8.536;2022-10-16T16:21:32;1.50;;;1.40;;
19173;SDS011;9719;49.322;8.536;2022-10-16T16:26:34;1.92;;;1.83;;
19173;SDS011;9719;49.322;8.536;2022-10-16T16:31:40;2.25;;;2.05;;
19173;SDS011;9719;49.322;8.536;2022-10-16T16:36:43;3.50;;;1.50;;
19173;SDS011;9719;49.322;8.536;2022-10-16T16:41:45;3.30;;;1.90;;
19173;SDS011;9719;49.322;8.536;2022-10-16T16:46:49;4.90;;;2.45;;
19173;SDS011;9719;49.322;8.536;2022-10-16T16:51:52;3.65;;;2.75;;
19173;SDS011;9719;49.322;8.536;2022-10-16T16:56:55;3.13;;;2.40;;
19173;SDS011;9719;49.322;8.536;2022-10-16T17:02:02;4.93;;;2.33;;
19173;SDS011;9719;49.322;8.536;2022-10-16T17:07:05;4.35;;;1.88;;
19173;SDS011;9719;49.322;8.536;2022-10-16T17:12:07;6.00;;;2.45;;
19173;SDS011;9719;49.322;8.536;2022-10-16T17:17:10;3.13;;;2.83;;
19173;SDS011;9719;49.322;8.536;2022-10-16T17:22:12;4.93;;;4.45;;
19173;SDS011;9719;49.322;8.536;2022-10-16T17:27:14;4.60;;;3.40;;
19173;SDS011;9719;49.322;8.536;2022-10-16T17:32:18;3.85;;;3.45;;
19173;SDS011;9719;49.322;8.536;2022-10-16T17:37:21;3.83;;;2.83;;
19173;SDS011;9719;49.322;8.536;2022-10-16T17:42:23;3.83;;;3.38;;
19173;SDS011;9719;49.322;8.536;2022-10-16T17:47:26;5.25;;;2.72;;
19173;SDS011;9719;49.322;8.536;2022-10-16T17:52:29;5.00;;;3.13;;
19173;SDS011;9719;49.322;8.536;2022-10-16T17:57:31;6.03;;;2.70;;
19173;SDS011;9719;49.322;8.536;2022-10-16T18:02:34;3.05;;;2.72;;
19173;SDS011;9719;49.322;8.536;2022-10-16T18:07:36;4.63;;;3.25;;
19173;SDS011;9719;49.322;8.536;2022-10-16T18:12:38;4.68;;;3.58;;
19173;SDS011;9719;49.322;8.536;2022-10-16T18:17:41;5.10;;;2.83;;
19173;SDS011;9719;49.322;8.536;2022-10-16T18:22:44;5.28;;;2.50;;
19173;SDS011;9719;49.322;8.536;2022-10-16T18:27:46;6.50;;;3.25;;
19173;SDS011;9719;49.322;8.536;2022-10-16T18:32:49;4.25;;;2.90;;
19173;SDS011;9719;49.322;8.536;2022-10-16T18:37:51;4.82;;;2.40;;
19173;SDS011;9719;49.322;8.536;2022-10-16T18:42:58;4.93;;;2.60;;
19173;SDS011;9719;49.322;8.536;2022-10-16T18:48:01;5.07;;;3.65;;
19173;SDS011;9719;49.322;8.536;2022-10-16T18:53:04;3.60;;;2.72;;
19173;SDS011;9719;49.322;8.536;2022-10-16T18:58:06;4.40;;;2.78;;
19173;SDS011;9719;49.322;8.536;2022-10-16T19:03:09;6.07;;;3.00;;
19173;SDS011;9719;49.322;8.536;2022-10-16T19:08:11;3.33;;;2.92;;
19173;SDS011;9719;49.322;8.536;2022-10-16T19:13:14;2.30;;;2.10;;
19173;SDS011;9719;49.322;8.536;2022-10-16T19:18:17;4.32;;;2.50;;
19173;SDS011;9719;49.322;8.536;2022-10-16T19:23:20;2.55;;;2.35;;
19173;SDS011;9719;49.322;8.536;2022-10-16T19:28:22;2.40;;;2.20;;
19173;SDS011;9719;49.322;8.536;2022-10-16T19:33:26;5.13;;;2.55;;
19173;SDS011;9719;49.322;8.536;2022-10-16T19:38:28;3.22;;;2.40;;
19173;SDS011;9719;49.322;8.536;2022-10-16T19:43:30;3.97;;;2.35;;
19173;SDS011;9719;49.322;8.536;2022-10-16T19:48:33;2.53;;;2.33;;
19173;SDS011;9719;49.322;8.536;2022-10-16T19:53:36;3.42;;;1.77;;
19173;SDS011;9719;49.322;8.536;2022-10-16T19:58:38;2.60;;;2.08;;
19173;SDS011;9719;49.322;8.536;2022-10-16T20:03:41;5.80;;;2.13;;
19173;SDS011;9719;49.322;8.536;2022-10-16T20:08:43;4.97;;;2.65;;
19173;SDS011;9719;49.322;8.536;2022-10-16T20:13:48;3.13;;;2.20;;
19173;SDS011;9719;49.322;8.536;2022-10-16T20:18:52;2.38;;;2.00;;
19173;SDS011;9719;49.322;8.536;2022-10-16T20:23:54;2.50;;;2.30;;
19173;SDS011;9719;49.322;8.536;2022-10-16T20:28:57;3.70;;;2.20;;
19173;SDS011;9719;49.322;8.536;2022-10-16T20:34:02;3.40;;;2.25;;
19173;SDS011;9719;49.322;8.536;2022-10-16T20:39:06;3.13;;;2.22;;
19173;SDS011;9719;49.322;8.536;2022-10-16T20:44:08;3.58;;;1.90;;
19173;SDS011;9719;49.322;8.536;2022-10-16T20:49:12;3.47;;;2.15;;
19173;SDS011;9719;49.322;8.536;2022-10-16T20:54:14;4.97;;;2.30;;
19173;SDS011;9719;49.322;8.536;2022-10-16T20:59:16;2.60;;;1.73;;
19173;SDS011;9719;49.322;8.536;2022-10-16T21:04:20;5.05;;;2.40;;
19173;SDS011;9719;49.322;8.536;2022-10-16T21:09:22;2.58;;;2.38;;
19173;SDS011;9719;49.322;8.536;2022-10-16T21:14:25;3.47;;;2.10;;
19173;SDS011;9719;49.322;8.536;2022-10-16T21:19:29;1.77;;;1.67;;
19173;SDS011;9719;49.322;8.536;2022-10-16T21:24:31;3.75;;;2.20;;
19173;SDS011;9719;49.322;8.536;2022-10-16T21:29:33;8.05;;;3.22;;
19173;SDS011;9719;49.322;8.536;2022-10-16T21:34:36;2.95;;;2.10;;
19173;SDS011;9719;49.322;8.536;2022-10-16T21:39:39;4.35;;;2.65;;
19173;SDS011;9719;49.322;8.536;2022-10-16T21:44:41;3.50;;;2.90;;
19173;SDS011;9719;49.322;8.536;2022-10-16T21:49:44;4.80;;;2.53;;
19173;SDS011;9719;49.322;8.536;2022-10-16T21:54:46;2.63;;;2.13;;
19173;SDS011;9719;49.322;8.536;2022-10-16T21:59:48;2.50;;;2.13;;
19173;SDS011;9719;49.322;8.536;2022-10-16T22:04:52;2.47;;;2.13;;
19173;SDS011;9719;49.322;8.536;2022-10-16T22:09:54;3.22;;;2.92;;
19173;SDS011;9719;49.322;8.536;2022-10-16T22:14:56;3.30;;;2.25;;
19173;SDS011;9719;49.322;8.536;2022-10-16T22:19:59;3.50;;;2.20;;
19173;SDS011;9719;49.322;8.536;2022-10-16T22:25:01;3.60;;;2.70;;
19173;SDS011;9719;49.322;8.536;2022-10-16T22:30:04;3.53;;;2.05;;
19173;SDS011;9719;49.322;8.536;2022-10-16T22:35:08;2.58;;;2.38;;
19173;SDS011;9719;49.322;8.536;2022-10-16T22:40:11;3.03;;;2.20;;
19173;SDS011;9719;49.322;8.536;2022-10-16T22:45:13;5.40;;;2.13;;
19173;SDS011;9719;49.322;8.536;2022-10-16T22:50:17;3.28;;;2.22;;
19173;SDS011;9719;49.322;8.536;2022-10-16T22:55:19;2.50;;;2.30;;
19173;SDS011;9719;49.322;8.536;2022-10-16T23:00:21;3.33;;;1.95;;
19173;SDS011;9719;49.322;8.536;2022-10-16T23:05:25;2.42;;;2.22;;
19173;SDS011;9719;49.322;8.536;2022-10-16T23:10:27;3.83;;;2.38;;
19173;SDS011;9719;49.322;8.536;2022-10-16T23:15:29;3.63;;;1.77;;
19173;SDS011;9719;49.322;8.536;2022-10-16T23:20:32;2.30;;;2.10;;
19173;SDS011;9719;49.322;8.536;2022-10-16T23:25:34;2.47;;;1.95;;
19173;SDS011;9719;49.322;8.536;2022-10-16T23:30:37;3.38;;;2.72;;
19173;SDS011;9719;49.322;8.536;2022-10-16T23:35:40;5.25;;;2.00;;
19173;SDS011;9719;49.322;8.536;2022-10-16T23:40:42;4.15;;;2.35;;
19173;SDS011;9719;49.322;8.536;2022-10-16T23:45:44;5.10;;;2.35;;
19173;SDS011;9719;49.322;8.536;2022-10-16T23:50:48;1.67;;;1.55;;
19173;SDS011;9719;49.322;8.536;2022-10-16T23:55:50;1.88;;;1.75;;
